sensor_id;sensor_type;location;lat;lon;timestamp;P1;durP1;ratioP1;P2;durP2;ratioP2
65717;SDS011;52445;52.466;-1.016;2023-05-07T00:00:18;7.68;;;3.50;;
65717;SDS011;52445;52.466;-1.016;2023-05-07T00:02:45;8.57;;;4.10;;
65717;SDS011;52445;52.466;-1.016;2023-05-07T00:05:13;7.57;;;3.90;;
65717;SDS011;52445;52.466;-1.016;2023-05-07T00:07:41;8.80;;;3.90;;
65717;SDS011;52445;52.466;-1.016;2023-05-07T00:10:08;7.40;;;3.58;;
65717;SDS011;52445;52.466;-1.016;2023-05-07T00:12:35;6.43;;;4.18;;
65717;SDS011;52445;52.466;-1.016;2023-05-07T00:15:02;8.18;;;4.50;;
65717;SDS011;52445;52.466;-1.016;2023-05-07T00:17:29;6.88;;;3.97;;
65717;SDS011;52445;52.466;-1.016;2023-05-07T00:19:56;6.30;;;3.75;;
65717;SDS011;52445;52.466;-1.016;2023-05-07T00:22:23;8.10;;;4.03;;
65717;SDS011;52445;52.466;-1.016;2023-05-07T00:24:50;7.35;;;3.88;;
65717;SDS011;52445;52.466;-1.016;2023-05-07T00:27:16;7.28;;;3.90;;
65717;SDS011;52445;52.466;-1.016;2023-05-07T00:29:43;6.28;;;3.20;;
65717;SDS011;52445;52.466;-1.016;2023-05-07T00:32:09;6.60;;;3.95;;
65717;SDS011;52445;52.466;-1.016;2023-05-07T00:34:36;6.40;;;3.58;;
65717;SDS011;52445;52.466;-1.016;2023-05-07T00:37:03;6.82;;;3.15;;
65717;SDS011;52445;52.466;-1.016;2023-05-07T00:39:31;5.68;;;3.58;;
65717;SDS011;52445;52.466;-1.016;2023-05-07T00:41:58;6.40;;;3.78;;
65717;SDS011;52445;52.466;-1.016;2023-05-07T00:44:25;6.10;;;3.53;;
65717;SDS011;52445;52.466;-1.016;2023-05-07T00:46:52;6.07;;;3.25;;
65717;SDS011;52445;52.466;-1.016;2023-05-07T00:49:19;9.43;;;4.93;;
65717;SDS011;52445;52.466;-1.016;2023-05-07T00:51:46;10.50;;;5.75;;
65717;SDS011;52445;52.466;-1.016;2023-05-07T00:54:13;9.07;;;4.45;;
65717;SDS011;52445;52.466;-1.016;2023-05-07T00:56:40;8.63;;;4.18;;
65717;SDS011;52445;52.466;-1.016;2023-05-07T00:59:07;10.00;;;3.55;;
65717;SDS011;52445;52.466;-1.016;2023-05-07T01:01:34;9.73;;;4.28;;
65717;SDS011;52445;52.466;-1.016;2023-05-07T01:04:01;7.85;;;4.05;;
65717;SDS011;52445;52.466;-1.016;2023-05-07T01:06:28;6.53;;;4.32;;
65717;SDS011;52445;52.466;-1.016;2023-05-07T01:08:56;9.13;;;3.88;;
65717;SDS011;52445;52.466;-1.016;2023-05-07T01:11:23;6.10;;;3.72;;
65717;SDS011;52445;52.466;-1.016;2023-05-07T01:13:51;12.18;;;4.47;;
65717;SDS011;52445;52.466;-1.016;2023-05-07T01:16:18;8.70;;;4.80;;
65717;SDS011;52445;52.466;-1.016;2023-05-07T01:18:45;7.80;;;4.15;;
65717;SDS011;52445;52.466;-1.016;2023-05-07T01:21:14;9.57;;;4.60;;
65717;SDS011;52445;52.466;-1.016;2023-05-07T01:23:42;9.88;;;4.68;;
65717;SDS011;52445;52.466;-1.016;2023-05-07T01:26:11;9.77;;;4.70;;
65717;SDS011;52445;52.466;-1.016;2023-05-07T01:28:37;10.18;;;4.32;;
65717;SDS011;52445;52.466;-1.016;2023-05-07T01:31:04;9.05;;;5.00;;
65717;SDS011;52445;52.466;-1.016;2023-05-07T01:33:33;11.20;;;5.07;;
65717;SDS011;52445;52.466;-1.016;2023-05-07T01:36:01;9.90;;;4.25;;
65717;SDS011;52445;52.466;-1.016;2023-05-07T01:38:30;8.38;;;4.68;;
65717;SDS011;52445;52.466;-1.016;2023-05-07T01:40:57;12.30;;;5.78;;
65717;SDS011;52445;52.466;-1.016;2023-05-07T01:43:24;10.35;;;5.90;;
65717;SDS011;52445;52.466;-1.016;2023-05-07T01:45:51;12.68;;;5.57;;
65717;SDS011;52445;52.466;-1.016;2023-05-07T01:48:19;17.15;;;7.43;;
65717;SDS011;52445;52.466;-1.016;2023-05-07T01:50:46;11.27;;;5.53;;
65717;SDS011;52445;52.466;-1.016;2023-05-07T01:53:14;12.95;;;6.90;;
65717;SDS011;52445;52.466;-1.016;2023-05-07T01:55:41;10.50;;;4.97;;
65717;SDS011;52445;52.466;-1.016;2023-05-07T01:58:08;14.52;;;5.47;;
65717;SDS011;52445;52.466;-1.016;2023-05-07T02:00:34;11.80;;;5.70;;
65717;SDS011;52445;52.466;-1.016;2023-05-07T02:03:02;10.93;;;5.15;;
65717;SDS011;52445;52.466;-1.016;2023-05-07T02:05:29;14.27;;;5.90;;
65717;SDS011;52445;52.466;-1.016;2023-05-07T02:07:56;15.68;;;6.15;;
65717;SDS011;52445;52.466;-1.016;2023-05-07T02:10:23;34.63;;;11.55;;
65717;SDS011;52445;52.466;-1.016;2023-05-07T02:12:49;12.85;;;6.30;;
65717;SDS011;52445;52.466;-1.016;2023-05-07T02:15:16;12.68;;;5.72;;
65717;SDS011;52445;52.466;-1.016;2023-05-07T02:20:31;12.80;;;6.05;;
65717;SDS011;52445;52.466;-1.016;2023-05-07T02:22:58;15.82;;;7.03;;
65717;SDS011;52445;52.466;-1.016;2023-05-07T02:25:24;15.32;;;6.07;;
65717;SDS011;52445;52.466;-1.016;2023-05-07T02:27:51;16.05;;;6.03;;
65717;SDS011;52445;52.466;-1.016;2023-05-07T02:30:17;14.13;;;6.07;;
65717;SDS011;52445;52.466;-1.016;2023-05-07T02:32:44;14.60;;;5.70;;
65717;SDS011;52445;52.466;-1.016;2023-05-07T02:35:11;12.40;;;5.95;;
65717;SDS011;52445;52.466;-1.016;2023-05-07T02:37:37;13.68;;;7.10;;
65717;SDS011;52445;52.466;-1.016;2023-05-07T02:40:04;15.52;;;6.40;;
65717;SDS011;52445;52.466;-1.016;2023-05-07T02:42:31;13.93;;;6.22;;
65717;SDS011;52445;52.466;-1.016;2023-05-07T02:44:58;16.73;;;5.95;;
65717;SDS011;52445;52.466;-1.016;2023-05-07T02:47:25;18.67;;;7.15;;
65717;SDS011;52445;52.466;-1.016;2023-05-07T02:52:21;15.25;;;6.57;;
65717;SDS011;52445;52.466;-1.016;2023-05-07T02:54:48;12.43;;;5.78;;
65717;SDS011;52445;52.466;-1.016;2023-05-07T02:57:15;16.08;;;6.90;;
65717;SDS011;52445;52.466;-1.016;2023-05-07T02:59:42;16.10;;;7.22;;
65717;SDS011;52445;52.466;-1.016;2023-05-07T03:02:09;14.32;;;6.18;;
65717;SDS011;52445;52.466;-1.016;2023-05-07T03:04:36;15.40;;;7.57;;
65717;SDS011;52445;52.466;-1.016;2023-05-07T03:07:03;19.13;;;7.03;;
65717;SDS011;52445;52.466;-1.016;2023-05-07T03:09:29;16.40;;;7.22;;
65717;SDS011;52445;52.466;-1.016;2023-05-07T03:11:56;17.33;;;7.07;;
65717;SDS011;52445;52.466;-1.016;2023-05-07T03:14:23;17.58;;;7.50;;
65717;SDS011;52445;52.466;-1.016;2023-05-07T03:16:49;14.43;;;7.15;;
65717;SDS011;52445;52.466;-1.016;2023-05-07T03:19:16;15.80;;;7.63;;
65717;SDS011;52445;52.466;-1.016;2023-05-07T03:21:42;14.02;;;6.45;;
65717;SDS011;52445;52.466;-1.016;2023-05-07T03:24:09;17.67;;;6.95;;
65717;SDS011;52445;52.466;-1.016;2023-05-07T03:26:36;15.85;;;6.22;;
65717;SDS011;52445;52.466;-1.016;2023-05-07T03:29:02;15.65;;;7.30;;
65717;SDS011;52445;52.466;-1.016;2023-05-07T03:31:29;13.60;;;5.55;;
65717;SDS011;52445;52.466;-1.016;2023-05-07T03:33:56;14.15;;;5.10;;
65717;SDS011;52445;52.466;-1.016;2023-05-07T03:36:23;13.05;;;5.63;;
65717;SDS011;52445;52.466;-1.016;2023-05-07T03:38:52;14.00;;;5.32;;
65717;SDS011;52445;52.466;-1.016;2023-05-07T03:41:19;14.10;;;5.65;;
65717;SDS011;52445;52.466;-1.016;2023-05-07T03:43:46;15.55;;;5.80;;
65717;SDS011;52445;52.466;-1.016;2023-05-07T03:46:13;14.48;;;5.70;;
65717;SDS011;52445;52.466;-1.016;2023-05-07T03:48:39;14.40;;;6.20;;
65717;SDS011;52445;52.466;-1.016;2023-05-07T03:51:06;15.65;;;5.60;;
65717;SDS011;52445;52.466;-1.016;2023-05-07T03:53:33;17.05;;;5.85;;
65717;SDS011;52445;52.466;-1.016;2023-05-07T03:55:59;14.98;;;6.55;;
65717;SDS011;52445;52.466;-1.016;2023-05-07T03:58:26;18.02;;;6.78;;
65717;SDS011;52445;52.466;-1.016;2023-05-07T04:00:52;17.35;;;6.55;;
65717;SDS011;52445;52.466;-1.016;2023-05-07T04:03:19;17.55;;;5.55;;
65717;SDS011;52445;52.466;-1.016;2023-05-07T04:05:46;17.40;;;6.50;;
65717;SDS011;52445;52.466;-1.016;2023-05-07T04:08:13;17.98;;;6.88;;
65717;SDS011;52445;52.466;-1.016;2023-05-07T04:10:39;16.73;;;6.15;;
65717;SDS011;52445;52.466;-1.016;2023-05-07T04:13:06;16.35;;;7.18;;
65717;SDS011;52445;52.466;-1.016;2023-05-07T04:15:33;18.10;;;6.55;;
65717;SDS011;52445;52.466;-1.016;2023-05-07T04:17:59;17.45;;;6.65;;
65717;SDS011;52445;52.466;-1.016;2023-05-07T04:20:26;15.45;;;5.80;;
65717;SDS011;52445;52.466;-1.016;2023-05-07T04:22:53;18.58;;;6.90;;
65717;SDS011;52445;52.466;-1.016;2023-05-07T04:25:19;15.60;;;5.90;;
65717;SDS011;52445;52.466;-1.016;2023-05-07T04:27:46;16.75;;;5.85;;
65717;SDS011;52445;52.466;-1.016;2023-05-07T04:30:12;19.08;;;6.05;;
65717;SDS011;52445;52.466;-1.016;2023-05-07T04:32:40;17.95;;;5.80;;
65717;SDS011;52445;52.466;-1.016;2023-05-07T04:35:06;17.38;;;6.40;;
65717;SDS011;52445;52.466;-1.016;2023-05-07T04:37:33;15.23;;;5.25;;
65717;SDS011;52445;52.466;-1.016;2023-05-07T04:40:00;16.15;;;5.88;;
65717;SDS011;52445;52.466;-1.016;2023-05-07T04:42:27;15.70;;;5.65;;
65717;SDS011;52445;52.466;-1.016;2023-05-07T04:44:54;16.80;;;5.85;;
65717;SDS011;52445;52.466;-1.016;2023-05-07T04:47:20;19.17;;;6.90;;
65717;SDS011;52445;52.466;-1.016;2023-05-07T04:49:47;17.13;;;6.53;;
65717;SDS011;52445;52.466;-1.016;2023-05-07T04:52:14;17.83;;;7.35;;
65717;SDS011;52445;52.466;-1.016;2023-05-07T04:54:41;16.15;;;6.05;;
65717;SDS011;52445;52.466;-1.016;2023-05-07T04:57:08;15.25;;;6.47;;
65717;SDS011;52445;52.466;-1.016;2023-05-07T04:59:34;16.70;;;6.53;;
65717;SDS011;52445;52.466;-1.016;2023-05-07T05:02:01;15.43;;;6.75;;
65717;SDS011;52445;52.466;-1.016;2023-05-07T05:04:30;14.13;;;6.13;;
65717;SDS011;52445;52.466;-1.016;2023-05-07T05:06:57;15.02;;;5.88;;
65717;SDS011;52445;52.466;-1.016;2023-05-07T05:09:24;17.05;;;6.70;;
65717;SDS011;52445;52.466;-1.016;2023-05-07T05:11:51;17.02;;;6.93;;
65717;SDS011;52445;52.466;-1.016;2023-05-07T05:14:17;15.27;;;6.07;;
65717;SDS011;52445;52.466;-1.016;2023-05-07T05:16:44;21.75;;;7.85;;
65717;SDS011;52445;52.466;-1.016;2023-05-07T05:19:10;21.77;;;7.97;;
65717;SDS011;52445;52.466;-1.016;2023-05-07T05:21:37;20.80;;;7.57;;
65717;SDS011;52445;52.466;-1.016;2023-05-07T05:24:03;23.52;;;8.10;;
65717;SDS011;52445;52.466;-1.016;2023-05-07T05:26:30;22.45;;;8.38;;
65717;SDS011;52445;52.466;-1.016;2023-05-07T05:28:57;25.35;;;9.75;;
65717;SDS011;52445;52.466;-1.016;2023-05-07T05:31:23;25.52;;;9.13;;
65717;SDS011;52445;52.466;-1.016;2023-05-07T05:33:50;24.45;;;8.98;;
65717;SDS011;52445;52.466;-1.016;2023-05-07T05:36:17;23.95;;;8.75;;
65717;SDS011;52445;52.466;-1.016;2023-05-07T05:38:43;21.33;;;8.02;;
65717;SDS011;52445;52.466;-1.016;2023-05-07T05:41:10;26.05;;;9.38;;
65717;SDS011;52445;52.466;-1.016;2023-05-07T05:43:37;24.73;;;9.05;;
65717;SDS011;52445;52.466;-1.016;2023-05-07T05:46:03;26.42;;;9.48;;
65717;SDS011;52445;52.466;-1.016;2023-05-07T05:48:31;23.80;;;8.73;;
65717;SDS011;52445;52.466;-1.016;2023-05-07T05:50:57;26.80;;;9.45;;
65717;SDS011;52445;52.466;-1.016;2023-05-07T05:53:24;26.30;;;9.40;;
65717;SDS011;52445;52.466;-1.016;2023-05-07T05:55:50;27.77;;;9.20;;
65717;SDS011;52445;52.466;-1.016;2023-05-07T05:58:17;24.23;;;8.77;;
65717;SDS011;52445;52.466;-1.016;2023-05-07T06:00:44;27.17;;;9.88;;
65717;SDS011;52445;52.466;-1.016;2023-05-07T06:03:12;24.70;;;8.80;;
65717;SDS011;52445;52.466;-1.016;2023-05-07T06:05:39;23.23;;;9.07;;
65717;SDS011;52445;52.466;-1.016;2023-05-07T06:08:06;24.88;;;9.15;;
65717;SDS011;52445;52.466;-1.016;2023-05-07T06:10:32;24.45;;;8.95;;
65717;SDS011;52445;52.466;-1.016;2023-05-07T06:12:59;24.02;;;9.55;;
65717;SDS011;52445;52.466;-1.016;2023-05-07T06:15:26;27.55;;;9.80;;
65717;SDS011;52445;52.466;-1.016;2023-05-07T06:17:52;22.38;;;7.68;;
65717;SDS011;52445;52.466;-1.016;2023-05-07T06:20:19;23.42;;;8.65;;
65717;SDS011;52445;52.466;-1.016;2023-05-07T06:22:46;24.00;;;8.25;;
65717;SDS011;52445;52.466;-1.016;2023-05-07T06:25:12;26.77;;;9.13;;
65717;SDS011;52445;52.466;-1.016;2023-05-07T06:27:39;23.90;;;8.00;;
65717;SDS011;52445;52.466;-1.016;2023-05-07T06:30:06;25.75;;;10.00;;
65717;SDS011;52445;52.466;-1.016;2023-05-07T06:32:33;29.58;;;10.88;;
65717;SDS011;52445;52.466;-1.016;2023-05-07T06:35:00;23.40;;;9.82;;
65717;SDS011;52445;52.466;-1.016;2023-05-07T06:37:27;25.98;;;9.98;;
65717;SDS011;52445;52.466;-1.016;2023-05-07T06:39:53;23.65;;;8.60;;
65717;SDS011;52445;52.466;-1.016;2023-05-07T06:42:20;24.52;;;9.55;;
65717;SDS011;52445;52.466;-1.016;2023-05-07T06:44:46;19.65;;;8.13;;
65717;SDS011;52445;52.466;-1.016;2023-05-07T06:47:13;17.75;;;7.63;;
65717;SDS011;52445;52.466;-1.016;2023-05-07T06:49:41;15.05;;;7.10;;
65717;SDS011;52445;52.466;-1.016;2023-05-07T06:52:08;17.92;;;8.05;;
65717;SDS011;52445;52.466;-1.016;2023-05-07T06:54:35;18.23;;;7.97;;
65717;SDS011;52445;52.466;-1.016;2023-05-07T06:57:01;17.20;;;8.45;;
65717;SDS011;52445;52.466;-1.016;2023-05-07T06:59:28;18.65;;;7.90;;
65717;SDS011;52445;52.466;-1.016;2023-05-07T07:01:54;16.55;;;7.78;;
65717;SDS011;52445;52.466;-1.016;2023-05-07T07:04:21;15.80;;;8.38;;
65717;SDS011;52445;52.466;-1.016;2023-05-07T07:06:51;14.75;;;6.80;;
65717;SDS011;52445;52.466;-1.016;2023-05-07T07:09:18;15.63;;;7.00;;
65717;SDS011;52445;52.466;-1.016;2023-05-07T07:11:47;15.15;;;6.78;;
65717;SDS011;52445;52.466;-1.016;2023-05-07T07:14:14;16.27;;;7.25;;
65717;SDS011;52445;52.466;-1.016;2023-05-07T07:16:41;14.02;;;7.40;;
65717;SDS011;52445;52.466;-1.016;2023-05-07T07:19:07;15.02;;;7.38;;
65717;SDS011;52445;52.466;-1.016;2023-05-07T07:21:34;16.08;;;7.85;;
65717;SDS011;52445;52.466;-1.016;2023-05-07T07:24:01;13.88;;;6.75;;
65717;SDS011;52445;52.466;-1.016;2023-05-07T07:26:27;15.65;;;7.43;;
65717;SDS011;52445;52.466;-1.016;2023-05-07T07:28:54;15.65;;;6.97;;
65717;SDS011;52445;52.466;-1.016;2023-05-07T07:31:20;13.43;;;6.95;;
65717;SDS011;52445;52.466;-1.016;2023-05-07T07:33:47;14.85;;;7.32;;
65717;SDS011;52445;52.466;-1.016;2023-05-07T07:36:14;14.30;;;7.43;;
65717;SDS011;52445;52.466;-1.016;2023-05-07T07:38:41;14.63;;;5.95;;
65717;SDS011;52445;52.466;-1.016;2023-05-07T07:41:08;15.43;;;6.47;;
65717;SDS011;52445;52.466;-1.016;2023-05-07T07:43:35;13.93;;;7.82;;
65717;SDS011;52445;52.466;-1.016;2023-05-07T07:46:02;12.93;;;6.15;;
65717;SDS011;52445;52.466;-1.016;2023-05-07T07:48:28;12.32;;;6.40;;
65717;SDS011;52445;52.466;-1.016;2023-05-07T07:50:55;14.70;;;7.03;;
65717;SDS011;52445;52.466;-1.016;2023-05-07T07:53:22;13.50;;;6.18;;
65717;SDS011;52445;52.466;-1.016;2023-05-07T07:55:48;13.18;;;5.80;;
65717;SDS011;52445;52.466;-1.016;2023-05-07T07:58:15;11.07;;;5.47;;
65717;SDS011;52445;52.466;-1.016;2023-05-07T08:00:42;13.20;;;6.75;;
65717;SDS011;52445;52.466;-1.016;2023-05-07T08:03:09;11.02;;;6.00;;
65717;SDS011;52445;52.466;-1.016;2023-05-07T08:05:37;10.70;;;5.63;;
65717;SDS011;52445;52.466;-1.016;2023-05-07T08:08:04;10.82;;;4.43;;
65717;SDS011;52445;52.466;-1.016;2023-05-07T08:10:32;12.10;;;6.57;;
65717;SDS011;52445;52.466;-1.016;2023-05-07T08:13:01;10.90;;;5.40;;
65717;SDS011;52445;52.466;-1.016;2023-05-07T08:15:30;12.93;;;5.65;;
65717;SDS011;52445;52.466;-1.016;2023-05-07T08:17:58;10.27;;;4.72;;
65717;SDS011;52445;52.466;-1.016;2023-05-07T08:20:26;10.13;;;5.57;;
65717;SDS011;52445;52.466;-1.016;2023-05-07T08:22:55;10.60;;;4.80;;
65717;SDS011;52445;52.466;-1.016;2023-05-07T08:25:21;9.27;;;4.22;;
65717;SDS011;52445;52.466;-1.016;2023-05-07T08:27:48;9.98;;;5.50;;
65717;SDS011;52445;52.466;-1.016;2023-05-07T08:30:15;9.95;;;4.43;;
65717;SDS011;52445;52.466;-1.016;2023-05-07T08:32:44;8.35;;;3.65;;
65717;SDS011;52445;52.466;-1.016;2023-05-07T08:35:14;8.80;;;4.38;;
65717;SDS011;52445;52.466;-1.016;2023-05-07T08:37:41;7.78;;;4.22;;
65717;SDS011;52445;52.466;-1.016;2023-05-07T08:40:11;4.78;;;2.40;;
65717;SDS011;52445;52.466;-1.016;2023-05-07T08:42:40;7.30;;;2.47;;
65717;SDS011;52445;52.466;-1.016;2023-05-07T08:45:09;5.03;;;3.20;;
65717;SDS011;52445;52.466;-1.016;2023-05-07T08:47:40;6.47;;;3.50;;
65717;SDS011;52445;52.466;-1.016;2023-05-07T08:50:11;6.10;;;2.70;;
65717;SDS011;52445;52.466;-1.016;2023-05-07T08:52:40;5.47;;;2.88;;
65717;SDS011;52445;52.466;-1.016;2023-05-07T08:55:08;7.45;;;3.45;;
65717;SDS011;52445;52.466;-1.016;2023-05-07T08:57:36;8.00;;;5.03;;
65717;SDS011;52445;52.466;-1.016;2023-05-07T09:00:06;8.77;;;4.65;;
65717;SDS011;52445;52.466;-1.016;2023-05-07T09:02:35;7.45;;;4.40;;
65717;SDS011;52445;52.466;-1.016;2023-05-07T09:05:03;5.47;;;3.33;;
65717;SDS011;52445;52.466;-1.016;2023-05-07T09:07:30;10.23;;;5.00;;
65717;SDS011;52445;52.466;-1.016;2023-05-07T09:09:57;10.63;;;5.20;;
65717;SDS011;52445;52.466;-1.016;2023-05-07T09:12:24;8.07;;;4.18;;
65717;SDS011;52445;52.466;-1.016;2023-05-07T09:14:51;8.77;;;4.07;;
65717;SDS011;52445;52.466;-1.016;2023-05-07T09:17:18;8.30;;;3.78;;
65717;SDS011;52445;52.466;-1.016;2023-05-07T09:19:46;7.45;;;3.75;;
65717;SDS011;52445;52.466;-1.016;2023-05-07T09:22:15;4.68;;;2.78;;
65717;SDS011;52445;52.466;-1.016;2023-05-07T09:24:48;4.70;;;2.60;;
65717;SDS011;52445;52.466;-1.016;2023-05-07T09:27:16;6.47;;;3.22;;
65717;SDS011;52445;52.466;-1.016;2023-05-07T09:29:45;5.07;;;2.95;;
65717;SDS011;52445;52.466;-1.016;2023-05-07T09:32:12;6.20;;;2.03;;
65717;SDS011;52445;52.466;-1.016;2023-05-07T09:34:41;5.95;;;2.50;;
65717;SDS011;52445;52.466;-1.016;2023-05-07T09:37:08;7.18;;;2.35;;
65717;SDS011;52445;52.466;-1.016;2023-05-07T09:39:38;5.13;;;2.58;;
65717;SDS011;52445;52.466;-1.016;2023-05-07T09:42:07;3.13;;;2.08;;
65717;SDS011;52445;52.466;-1.016;2023-05-07T09:44:34;4.82;;;2.95;;
65717;SDS011;52445;52.466;-1.016;2023-05-07T09:47:01;4.10;;;1.92;;
65717;SDS011;52445;52.466;-1.016;2023-05-07T09:49:34;6.55;;;2.67;;
65717;SDS011;52445;52.466;-1.016;2023-05-07T09:52:04;5.25;;;2.38;;
65717;SDS011;52445;52.466;-1.016;2023-05-07T09:54:32;5.88;;;2.60;;
65717;SDS011;52445;52.466;-1.016;2023-05-07T09:57:01;6.85;;;2.95;;
65717;SDS011;52445;52.466;-1.016;2023-05-07T09:59:31;6.10;;;3.15;;
65717;SDS011;52445;52.466;-1.016;2023-05-07T10:02:01;4.10;;;1.88;;
65717;SDS011;52445;52.466;-1.016;2023-05-07T10:04:31;6.90;;;2.25;;
65717;SDS011;52445;52.466;-1.016;2023-05-07T10:06:58;4.07;;;1.70;;
65717;SDS011;52445;52.466;-1.016;2023-05-07T10:09:26;4.45;;;2.50;;
65717;SDS011;52445;52.466;-1.016;2023-05-07T10:11:52;5.13;;;2.10;;
65717;SDS011;52445;52.466;-1.016;2023-05-07T10:14:21;4.45;;;2.35;;
65717;SDS011;52445;52.466;-1.016;2023-05-07T10:16:48;4.80;;;2.95;;
65717;SDS011;52445;52.466;-1.016;2023-05-07T10:19:17;7.10;;;3.13;;
65717;SDS011;52445;52.466;-1.016;2023-05-07T10:21:46;5.47;;;3.10;;
65717;SDS011;52445;52.466;-1.016;2023-05-07T10:24:21;4.90;;;2.80;;
65717;SDS011;52445;52.466;-1.016;2023-05-07T10:26:52;5.28;;;2.17;;
65717;SDS011;52445;52.466;-1.016;2023-05-07T10:32:47;6.85;;;2.97;;
65717;SDS011;52445;52.466;-1.016;2023-05-07T10:35:21;5.40;;;3.10;;
65717;SDS011;52445;52.466;-1.016;2023-05-07T10:37:51;4.43;;;2.38;;
65717;SDS011;52445;52.466;-1.016;2023-05-07T10:40:20;4.90;;;2.53;;
65717;SDS011;52445;52.466;-1.016;2023-05-07T10:42:56;3.17;;;1.02;;
65717;SDS011;52445;52.466;-1.016;2023-05-07T10:45:25;4.60;;;2.25;;
65717;SDS011;52445;52.466;-1.016;2023-05-07T10:50:44;2.53;;;1.75;;
65717;SDS011;52445;52.466;-1.016;2023-05-07T10:55:51;6.22;;;3.85;;
65717;SDS011;52445;52.466;-1.016;2023-05-07T10:58:38;7.50;;;4.05;;
65717;SDS011;52445;52.466;-1.016;2023-05-07T11:01:05;4.18;;;3.13;;
65717;SDS011;52445;52.466;-1.016;2023-05-07T11:03:31;3.50;;;2.70;;
65717;SDS011;52445;52.466;-1.016;2023-05-07T11:06:14;5.65;;;3.72;;
65717;SDS011;52445;52.466;-1.016;2023-05-07T11:08:55;3.47;;;3.17;;
65717;SDS011;52445;52.466;-1.016;2023-05-07T11:11:55;3.53;;;3.22;;
65717;SDS011;52445;52.466;-1.016;2023-05-07T11:14:14;3.85;;;2.63;;
65717;SDS011;52445;52.466;-1.016;2023-05-07T11:17:02;2.90;;;2.35;;
65717;SDS011;52445;52.466;-1.016;2023-05-07T11:25:08;2.70;;;1.33;;
65717;SDS011;52445;52.466;-1.016;2023-05-07T11:27:35;3.72;;;1.42;;
65717;SDS011;52445;52.466;-1.016;2023-05-07T11:30:02;2.65;;;1.60;;
65717;SDS011;52445;52.466;-1.016;2023-05-07T11:32:30;3.65;;;1.63;;
65717;SDS011;52445;52.466;-1.016;2023-05-07T11:34:59;4.40;;;1.42;;
65717;SDS011;52445;52.466;-1.016;2023-05-07T11:37:27;2.22;;;1.20;;
65717;SDS011;52445;52.466;-1.016;2023-05-07T11:42:40;2.15;;;1.10;;
65717;SDS011;52445;52.466;-1.016;2023-05-07T11:45:09;2.55;;;1.38;;
65717;SDS011;52445;52.466;-1.016;2023-05-07T11:47:36;3.17;;;0.88;;
65717;SDS011;52445;52.466;-1.016;2023-05-07T11:50:05;4.10;;;1.40;;
65717;SDS011;52445;52.466;-1.016;2023-05-07T11:52:34;3.78;;;1.77;;
65717;SDS011;52445;52.466;-1.016;2023-05-07T11:55:02;3.08;;;1.40;;
65717;SDS011;52445;52.466;-1.016;2023-05-07T11:57:32;1.50;;;1.02;;
65717;SDS011;52445;52.466;-1.016;2023-05-07T12:00:00;3.25;;;1.20;;
65717;SDS011;52445;52.466;-1.016;2023-05-07T12:02:28;2.75;;;1.30;;
65717;SDS011;52445;52.466;-1.016;2023-05-07T12:04:55;2.80;;;1.40;;
65717;SDS011;52445;52.466;-1.016;2023-05-07T12:07:22;2.08;;;1.40;;
65717;SDS011;52445;52.466;-1.016;2023-05-07T12:09:50;3.30;;;1.80;;
65717;SDS011;52445;52.466;-1.016;2023-05-07T12:12:16;2.20;;;1.10;;
65717;SDS011;52445;52.466;-1.016;2023-05-07T12:14:44;2.45;;;1.50;;
65717;SDS011;52445;52.466;-1.016;2023-05-07T12:17:11;1.90;;;1.30;;
65717;SDS011;52445;52.466;-1.016;2023-05-07T12:19:41;2.83;;;1.50;;
65717;SDS011;52445;52.466;-1.016;2023-05-07T12:22:10;2.85;;;1.50;;
65717;SDS011;52445;52.466;-1.016;2023-05-07T12:24:45;2.80;;;1.48;;
65717;SDS011;52445;52.466;-1.016;2023-05-07T12:27:13;4.18;;;1.80;;
65717;SDS011;52445;52.466;-1.016;2023-05-07T12:29:49;3.78;;;1.67;;
65717;SDS011;52445;52.466;-1.016;2023-05-07T12:32:17;2.45;;;1.30;;
65717;SDS011;52445;52.466;-1.016;2023-05-07T12:34:44;3.20;;;1.85;;
65717;SDS011;52445;52.466;-1.016;2023-05-07T12:37:12;2.80;;;1.23;;
65717;SDS011;52445;52.466;-1.016;2023-05-07T12:42:36;2.65;;;1.17;;
65717;SDS011;52445;52.466;-1.016;2023-05-07T12:45:07;4.85;;;1.70;;
65717;SDS011;52445;52.466;-1.016;2023-05-07T12:47:37;4.72;;;1.05;;
65717;SDS011;52445;52.466;-1.016;2023-05-07T12:50:05;2.83;;;1.38;;
65717;SDS011;52445;52.466;-1.016;2023-05-07T12:52:33;4.15;;;1.75;;
65717;SDS011;52445;52.466;-1.016;2023-05-07T12:55:07;3.47;;;1.10;;
65717;SDS011;52445;52.466;-1.016;2023-05-07T12:57:39;3.92;;;2.05;;
65717;SDS011;52445;52.466;-1.016;2023-05-07T13:00:07;4.43;;;1.88;;
65717;SDS011;52445;52.466;-1.016;2023-05-07T13:02:38;2.85;;;1.48;;
65717;SDS011;52445;52.466;-1.016;2023-05-07T13:05:08;3.85;;;1.92;;
65717;SDS011;52445;52.466;-1.016;2023-05-07T13:07:35;3.35;;;2.28;;
65717;SDS011;52445;52.466;-1.016;2023-05-07T13:10:03;3.35;;;1.92;;
65717;SDS011;52445;52.466;-1.016;2023-05-07T13:12:30;4.78;;;1.95;;
65717;SDS011;52445;52.466;-1.016;2023-05-07T13:14:57;4.03;;;2.10;;
65717;SDS011;52445;52.466;-1.016;2023-05-07T13:17:23;2.92;;;2.00;;
65717;SDS011;52445;52.466;-1.016;2023-05-07T13:19:50;3.05;;;2.60;;
65717;SDS011;52445;52.466;-1.016;2023-05-07T13:22:17;3.45;;;2.22;;
65717;SDS011;52445;52.466;-1.016;2023-05-07T13:24:44;3.78;;;1.95;;
65717;SDS011;52445;52.466;-1.016;2023-05-07T13:27:10;4.80;;;2.28;;
65717;SDS011;52445;52.466;-1.016;2023-05-07T13:29:37;4.53;;;2.47;;
65717;SDS011;52445;52.466;-1.016;2023-05-07T13:32:03;3.25;;;1.90;;
65717;SDS011;52445;52.466;-1.016;2023-05-07T13:34:30;3.30;;;2.25;;
65717;SDS011;52445;52.466;-1.016;2023-05-07T13:36:57;4.47;;;2.25;;
65717;SDS011;52445;52.466;-1.016;2023-05-07T13:39:23;2.97;;;1.58;;
65717;SDS011;52445;52.466;-1.016;2023-05-07T13:41:50;4.25;;;2.38;;
65717;SDS011;52445;52.466;-1.016;2023-05-07T13:44:17;5.10;;;1.85;;
65717;SDS011;52445;52.466;-1.016;2023-05-07T13:46:43;3.83;;;2.10;;
65717;SDS011;52445;52.466;-1.016;2023-05-07T13:49:10;3.33;;;1.65;;
65717;SDS011;52445;52.466;-1.016;2023-05-07T13:51:39;5.97;;;2.03;;
65717;SDS011;52445;52.466;-1.016;2023-05-07T13:54:06;4.32;;;1.92;;
65717;SDS011;52445;52.466;-1.016;2023-05-07T13:56:32;4.47;;;1.52;;
65717;SDS011;52445;52.466;-1.016;2023-05-07T13:58:59;5.15;;;2.10;;
65717;SDS011;52445;52.466;-1.016;2023-05-07T14:01:26;7.10;;;2.33;;
65717;SDS011;52445;52.466;-1.016;2023-05-07T14:03:54;3.58;;;2.58;;
65717;SDS011;52445;52.466;-1.016;2023-05-07T14:06:22;5.40;;;2.67;;
65717;SDS011;52445;52.466;-1.016;2023-05-07T14:08:48;3.13;;;2.03;;
65717;SDS011;52445;52.466;-1.016;2023-05-07T14:11:15;5.90;;;3.05;;
65717;SDS011;52445;52.466;-1.016;2023-05-07T14:13:42;5.35;;;2.75;;
65717;SDS011;52445;52.466;-1.016;2023-05-07T14:16:08;6.90;;;3.65;;
65717;SDS011;52445;52.466;-1.016;2023-05-07T14:18:35;10.52;;;5.10;;
65717;SDS011;52445;52.466;-1.016;2023-05-07T14:21:04;5.55;;;3.42;;
65717;SDS011;52445;52.466;-1.016;2023-05-07T14:23:32;5.05;;;2.53;;
65717;SDS011;52445;52.466;-1.016;2023-05-07T14:25:59;4.80;;;4.07;;
65717;SDS011;52445;52.466;-1.016;2023-05-07T14:28:26;5.15;;;2.00;;
65717;SDS011;52445;52.466;-1.016;2023-05-07T14:30:52;8.55;;;3.70;;
65717;SDS011;52445;52.466;-1.016;2023-05-07T14:33:19;4.35;;;2.13;;
65717;SDS011;52445;52.466;-1.016;2023-05-07T14:35:45;6.05;;;2.60;;
65717;SDS011;52445;52.466;-1.016;2023-05-07T14:38:15;4.97;;;2.88;;
65717;SDS011;52445;52.466;-1.016;2023-05-07T14:40:41;4.53;;;2.95;;
65717;SDS011;52445;52.466;-1.016;2023-05-07T14:43:08;6.90;;;3.22;;
65717;SDS011;52445;52.466;-1.016;2023-05-07T14:45:35;3.67;;;1.80;;
65717;SDS011;52445;52.466;-1.016;2023-05-07T14:48:02;3.08;;;1.95;;
65717;SDS011;52445;52.466;-1.016;2023-05-07T14:50:29;4.20;;;1.48;;
65717;SDS011;52445;52.466;-1.016;2023-05-07T14:52:55;2.65;;;1.05;;
65717;SDS011;52445;52.466;-1.016;2023-05-07T14:55:22;5.70;;;2.33;;